sensor_id;sensor_type;location;lat;lon;timestamp;temperature;humidity
9448;DHT22;4762;48.128;11.376;2022-11-20T00:01:38;4.80;95.80
9448;DHT22;4762;48.128;11.376;2022-11-20T00:03:41;4.70;95.60
9448;DHT22;4762;48.128;11.376;2022-11-20T00:05:43;5.00;95.80
9448;DHT22;4762;48.128;11.376;2022-11-20T00:07:47;4.90;95.60
9448;DHT22;4762;48.128;11.376;2022-11-20T00:54:21;4.70;95.40
9448;DHT22;4762;48.128;11.376;2022-11-20T00:56:24;4.90;95.40
9448;DHT22;4762;48.128;11.376;2022-11-20T00:58:30;4.80;95.30
9448;DHT22;4762;48.128;11.376;2022-11-20T01:00:41;4.80;95.20
9448;DHT22;4762;48.128;11.376;2022-11-20T01:02:44;4.80;95.00
9448;DHT22;4762;48.128;11.376;2022-11-20T01:04:48;4.90;95.10
9448;DHT22;4762;48.128;11.376;2022-11-20T01:06:51;4.80;95.20
9448;DHT22;4762;48.128;11.376;2022-11-20T01:08:56;4.80;95.20
9448;DHT22;4762;48.128;11.376;2022-11-20T01:11:07;4.80;95.00
9448;DHT22;4762;48.128;11.376;2022-11-20T01:13:11;4.90;95.10
9448;DHT22;4762;48.128;11.376;2022-11-20T01:15:19;4.80;95.00
9448;DHT22;4762;48.128;11.376;2022-11-20T01:17:37;4.90;95.00
9448;DHT22;4762;48.128;11.376;2022-11-20T01:19:48;4.70;94.80
9448;DHT22;4762;48.128;11.376;2022-11-20T01:21:50;4.90;94.90
9448;DHT22;4762;48.128;11.376;2022-11-20T01:23:57;4.90;94.50
9448;DHT22;4762;48.128;11.376;2022-11-20T01:26:07;4.90;94.70
9448;DHT22;4762;48.128;11.376;2022-11-20T01:28:12;4.90;95.00
9448;DHT22;4762;48.128;11.376;2022-11-20T01:30:15;5.00;94.40
9448;DHT22;4762;48.128;11.376;2022-11-20T01:32:22;4.90;94.80
9448;DHT22;4762;48.128;11.376;2022-11-20T01:34:27;5.10;94.40
9448;DHT22;4762;48.128;11.376;2022-11-20T01:36:35;4.80;94.70
9448;DHT22;4762;48.128;11.376;2022-11-20T01:38:41;4.90;94.70
9448;DHT22;4762;48.128;11.376;2022-11-20T01:40:45;4.90;95.00
9448;DHT22;4762;48.128;11.376;2022-11-20T01:42:53;5.00;95.10
9448;DHT22;4762;48.128;11.376;2022-11-20T01:47:35;4.70;94.90
9448;DHT22;4762;48.128;11.376;2022-11-20T01:49:50;4.80;94.80
9448;DHT22;4762;48.128;11.376;2022-11-20T01:52:01;5.00;94.70
9448;DHT22;4762;48.128;11.376;2022-11-20T01:54:05;4.90;94.30
9448;DHT22;4762;48.128;11.376;2022-11-20T01:56:12;5.00;94.70
9448;DHT22;4762;48.128;11.376;2022-11-20T01:58:15;4.80;94.60
9448;DHT22;4762;48.128;11.376;2022-11-20T02:00:20;4.90;94.70
9448;DHT22;4762;48.128;11.376;2022-11-20T02:02:29;4.70;94.70
9448;DHT22;4762;48.128;11.376;2022-11-20T02:11:56;4.70;94.30
9448;DHT22;4762;48.128;11.376;2022-11-20T02:14:02;5.00;94.30
9448;DHT22;4762;48.128;11.376;2022-11-20T02:33:25;4.80;93.90
9448;DHT22;4762;48.128;11.376;2022-11-20T02:35:47;4.90;93.90
9448;DHT22;4762;48.128;11.376;2022-11-20T02:37:53;4.70;94.10
9448;DHT22;4762;48.128;11.376;2022-11-20T02:39:56;4.80;94.20
9448;DHT22;4762;48.128;11.376;2022-11-20T02:42:06;4.80;93.90
9448;DHT22;4762;48.128;11.376;2022-11-20T02:44:09;4.80;93.80
9448;DHT22;4762;48.128;11.376;2022-11-20T02:46:14;4.80;93.90
9448;DHT22;4762;48.128;11.376;2022-11-20T02:48:22;4.90;93.70
9448;DHT22;4762;48.128;11.376;2022-11-20T02:50:26;4.80;93.80
9448;DHT22;4762;48.128;11.376;2022-11-20T02:52:30;4.80;93.70
9448;DHT22;4762;48.128;11.376;2022-11-20T02:54:37;4.90;93.70
9448;DHT22;4762;48.128;11.376;2022-11-20T02:56:45;5.00;93.60
9448;DHT22;4762;48.128;11.376;2022-11-20T02:58:48;4.80;93.20
9448;DHT22;4762;48.128;11.376;2022-11-20T03:00:51;4.80;93.50
9448;DHT22;4762;48.128;11.376;2022-11-20T03:02:54;4.80;93.70
9448;DHT22;4762;48.128;11.376;2022-11-20T03:24:49;4.90;93.70
9448;DHT22;4762;48.128;11.376;2022-11-20T03:26:53;4.80;93.60
9448;DHT22;4762;48.128;11.376;2022-11-20T03:28:58;4.90;93.40
9448;DHT22;4762;48.128;11.376;2022-11-20T03:31:04;4.70;93.60
9448;DHT22;4762;48.128;11.376;2022-11-20T03:33:11;4.70;93.60
9448;DHT22;4762;48.128;11.376;2022-11-20T03:35:15;4.90;93.50
9448;DHT22;4762;48.128;11.376;2022-11-20T03:37:19;4.80;93.50
9448;DHT22;4762;48.128;11.376;2022-11-20T03:39:28;4.70;93.30
9448;DHT22;4762;48.128;11.376;2022-11-20T03:41:36;4.90;93.20
9448;DHT22;4762;48.128;11.376;2022-11-20T03:43:39;4.70;93.30
9448;DHT22;4762;48.128;11.376;2022-11-20T03:45:43;4.70;93.30
9448;DHT22;4762;48.128;11.376;2022-11-20T03:47:49;4.90;93.30
9448;DHT22;4762;48.128;11.376;2022-11-20T03:49:53;4.80;93.20
9448;DHT22;4762;48.128;11.376;2022-11-20T03:51:59;4.70;93.30
9448;DHT22;4762;48.128;11.376;2022-11-20T03:54:07;4.60;93.00
9448;DHT22;4762;48.128;11.376;2022-11-20T03:56:10;4.60;92.90
9448;DHT22;4762;48.128;11.376;2022-11-20T03:58:14;4.80;93.30
9448;DHT22;4762;48.128;11.376;2022-11-20T04:00:18;4.70;93.20
9448;DHT22;4762;48.128;11.376;2022-11-20T04:02:23;4.80;92.80
9448;DHT22;4762;48.128;11.376;2022-11-20T04:04:25;4.70;92.90
9448;DHT22;4762;48.128;11.376;2022-11-20T04:06:30;4.70;92.80
9448;DHT22;4762;48.128;11.376;2022-11-20T04:08:37;4.60;93.10
9448;DHT22;4762;48.128;11.376;2022-11-20T04:10:41;4.80;93.10
9448;DHT22;4762;48.128;11.376;2022-11-20T04:12:45;4.70;93.20
9448;DHT22;4762;48.128;11.376;2022-11-20T04:14:49;4.70;93.20
9448;DHT22;4762;48.128;11.376;2022-11-20T04:16:53;4.70;93.30
9448;DHT22;4762;48.128;11.376;2022-11-20T04:18:59;4.70;93.20
9448;DHT22;4762;48.128;11.376;2022-11-20T04:21:04;4.70;93.20
9448;DHT22;4762;48.128;11.376;2022-11-20T04:23:08;4.70;93.20
9448;DHT22;4762;48.128;11.376;2022-11-20T04:25:13;4.70;92.80
9448;DHT22;4762;48.128;11.376;2022-11-20T04:27:19;4.50;93.10
9448;DHT22;4762;48.128;11.376;2022-11-20T04:29:26;4.70;93.00
9448;DHT22;4762;48.128;11.376;2022-11-20T04:31:29;4.50;93.10
9448;DHT22;4762;48.128;11.376;2022-11-20T04:33:32;4.60;93.00
9448;DHT22;4762;48.128;11.376;2022-11-20T04:35:36;4.60;92.80
9448;DHT22;4762;48.128;11.376;2022-11-20T04:37:43;4.60;93.20
9448;DHT22;4762;48.128;11.376;2022-11-20T04:39:48;4.60;93.00
9448;DHT22;4762;48.128;11.376;2022-11-20T04:41:53;4.70;93.00
9448;DHT22;4762;48.128;11.376;2022-11-20T04:43:57;4.40;92.90
9448;DHT22;4762;48.128;11.376;2022-11-20T04:46:01;4.70;93.10
9448;DHT22;4762;48.128;11.376;2022-11-20T04:48:08;4.70;93.00
9448;DHT22;4762;48.128;11.376;2022-11-20T04:50:11;4.80;93.30
9448;DHT22;4762;48.128;11.376;2022-11-20T04:52:15;4.60;93.30
9448;DHT22;4762;48.128;11.376;2022-11-20T04:54:20;4.70;93.10
9448;DHT22;4762;48.128;11.376;2022-11-20T04:56:26;4.60;93.30
9448;DHT22;4762;48.128;11.376;2022-11-20T04:58:32;4.70;93.20
9448;DHT22;4762;48.128;11.376;2022-11-20T05:00:42;4.70;93.10
9448;DHT22;4762;48.128;11.376;2022-11-20T05:02:45;4.60;93.20
9448;DHT22;4762;48.128;11.376;2022-11-20T05:04:48;4.60;93.10
9448;DHT22;4762;48.128;11.376;2022-11-20T05:06:50;4.60;93.10
9448;DHT22;4762;48.128;11.376;2022-11-20T05:08:54;4.60;93.10
9448;DHT22;4762;48.128;11.376;2022-11-20T05:11:00;4.60;92.90
9448;DHT22;4762;48.128;11.376;2022-11-20T05:13:02;4.60;93.10
9448;DHT22;4762;48.128;11.376;2022-11-20T05:15:09;4.70;93.00
9448;DHT22;4762;48.128;11.376;2022-11-20T05:17:13;4.60;93.00
9448;DHT22;4762;48.128;11.376;2022-11-20T05:19:16;4.60;92.40
9448;DHT22;4762;48.128;11.376;2022-11-20T05:21:29;4.70;92.90
9448;DHT22;4762;48.128;11.376;2022-11-20T05:23:40;4.50;92.60
9448;DHT22;4762;48.128;11.376;2022-11-20T05:25:48;4.60;92.80
9448;DHT22;4762;48.128;11.376;2022-11-20T05:27:51;4.60;92.60
9448;DHT22;4762;48.128;11.376;2022-11-20T05:29:54;4.60;92.60
9448;DHT22;4762;48.128;11.376;2022-11-20T05:32:01;4.50;92.60
9448;DHT22;4762;48.128;11.376;2022-11-20T05:34:05;4.50;92.70
9448;DHT22;4762;48.128;11.376;2022-11-20T05:36:13;4.50;92.70
9448;DHT22;4762;48.128;11.376;2022-11-20T05:38:17;4.60;92.80
9448;DHT22;4762;48.128;11.376;2022-11-20T05:40:22;4.60;92.80
9448;DHT22;4762;48.128;11.376;2022-11-20T05:42:26;4.60;92.40
9448;DHT22;4762;48.128;11.376;2022-11-20T06:01:56;4.30;92.70
9448;DHT22;4762;48.128;11.376;2022-11-20T06:03:59;4.20;92.70
9448;DHT22;4762;48.128;11.376;2022-11-20T06:06:02;4.30;92.40
9448;DHT22;4762;48.128;11.376;2022-11-20T06:08:05;4.30;92.60
9448;DHT22;4762;48.128;11.376;2022-11-20T06:10:12;4.20;91.70
9448;DHT22;4762;48.128;11.376;2022-11-20T06:34:51;4.10;90.40
9448;DHT22;4762;48.128;11.376;2022-11-20T06:36:58;4.00;90.20
9448;DHT22;4762;48.128;11.376;2022-11-20T06:39:02;4.10;90.00
9448;DHT22;4762;48.128;11.376;2022-11-20T06:41:08;4.10;90.00
9448;DHT22;4762;48.128;11.376;2022-11-20T07:03:07;4.40;90.20
9448;DHT22;4762;48.128;11.376;2022-11-20T07:25:05;4.70;90.80
9448;DHT22;4762;48.128;11.376;2022-11-20T07:27:10;4.70;91.30
9448;DHT22;4762;48.128;11.376;2022-11-20T07:46:34;5.00;91.10
9448;DHT22;4762;48.128;11.376;2022-11-20T07:48:36;4.70;90.60
9448;DHT22;4762;48.128;11.376;2022-11-20T07:50:42;4.80;90.90
9448;DHT22;4762;48.128;11.376;2022-11-20T07:52:48;5.00;90.50
9448;DHT22;4762;48.128;11.376;2022-11-20T07:54:50;4.90;90.60
9448;DHT22;4762;48.128;11.376;2022-11-20T07:56:54;4.90;90.30
9448;DHT22;4762;48.128;11.376;2022-11-20T07:58:57;5.00;90.50
9448;DHT22;4762;48.128;11.376;2022-11-20T08:01:03;5.10;90.60
9448;DHT22;4762;48.128;11.376;2022-11-20T08:03:09;5.00;90.40
9448;DHT22;4762;48.128;11.376;2022-11-20T08:05:26;5.00;90.30
9448;DHT22;4762;48.128;11.376;2022-11-20T08:07:34;5.10;89.90
9448;DHT22;4762;48.128;11.376;2022-11-20T08:26:51;5.50;88.80
9448;DHT22;4762;48.128;11.376;2022-11-20T08:28:57;5.40;88.90
9448;DHT22;4762;48.128;11.376;2022-11-20T08:31:03;5.60;87.90
9448;DHT22;4762;48.128;11.376;2022-11-20T08:33:21;5.60;88.40
9448;DHT22;4762;48.128;11.376;2022-11-20T08:35:40;5.40;88.00
9448;DHT22;4762;48.128;11.376;2022-11-20T08:37:47;5.60;88.10
9448;DHT22;4762;48.128;11.376;2022-11-20T08:39:51;5.70;88.40
9448;DHT22;4762;48.128;11.376;2022-11-20T08:42:01;5.80;88.00
9448;DHT22;4762;48.128;11.376;2022-11-20T08:44:07;5.90;87.30
9448;DHT22;4762;48.128;11.376;2022-11-20T08:46:16;6.10;88.20
9448;DHT22;4762;48.128;11.376;2022-11-20T08:48:27;6.10;87.50
9448;DHT22;4762;48.128;11.376;2022-11-20T08:50:41;6.10;87.40
9448;DHT22;4762;48.128;11.376;2022-11-20T08:53:07;6.10;87.50
9448;DHT22;4762;48.128;11.376;2022-11-20T08:55:29;6.30;87.40
9448;DHT22;4762;48.128;11.376;2022-11-20T08:57:38;6.20;86.70
9448;DHT22;4762;48.128;11.376;2022-11-20T08:59:46;6.30;86.60
9448;DHT22;4762;48.128;11.376;2022-11-20T09:02:02;6.30;86.10
9448;DHT22;4762;48.128;11.376;2022-11-20T09:06:30;6.30;86.10
9448;DHT22;4762;48.128;11.376;2022-11-20T09:26:14;6.40;85.20
9448;DHT22;4762;48.128;11.376;2022-11-20T09:28:29;6.40;86.10
9448;DHT22;4762;48.128;11.376;2022-11-20T09:30:45;6.60;86.60
9448;DHT22;4762;48.128;11.376;2022-11-20T09:32:49;6.50;85.00
9448;DHT22;4762;48.128;11.376;2022-11-20T09:34:52;6.30;84.60
9448;DHT22;4762;48.128;11.376;2022-11-20T09:36:55;6.30;84.60
9448;DHT22;4762;48.128;11.376;2022-11-20T09:39:00;6.30;84.90
9448;DHT22;4762;48.128;11.376;2022-11-20T09:41:06;6.30;84.50
9448;DHT22;4762;48.128;11.376;2022-11-20T09:43:32;6.50;84.80
9448;DHT22;4762;48.128;11.376;2022-11-20T09:45:44;6.70;84.10
9448;DHT22;4762;48.128;11.376;2022-11-20T09:48:14;7.10;83.60
9448;DHT22;4762;48.128;11.376;2022-11-20T09:50:32;7.50;84.10
9448;DHT22;4762;48.128;11.376;2022-11-20T09:54:47;8.30;83.30
9448;DHT22;4762;48.128;11.376;2022-11-20T09:57:01;8.10;80.90
9448;DHT22;4762;48.128;11.376;2022-11-20T09:59:06;8.10;81.80
9448;DHT22;4762;48.128;11.376;2022-11-20T10:01:29;8.00;81.80
9448;DHT22;4762;48.128;11.376;2022-11-20T10:03:37;7.90;81.80
9448;DHT22;4762;48.128;11.376;2022-11-20T10:06:08;8.30;82.10
9448;DHT22;4762;48.128;11.376;2022-11-20T10:08:24;8.10;81.00
9448;DHT22;4762;48.128;11.376;2022-11-20T10:13:01;8.10;80.90
9448;DHT22;4762;48.128;11.376;2022-11-20T10:15:29;8.20;81.70
9448;DHT22;4762;48.128;11.376;2022-11-20T10:24:55;9.00;81.90
9448;DHT22;4762;48.128;11.376;2022-11-20T10:27:05;9.80;81.00
9448;DHT22;4762;48.128;11.376;2022-11-20T10:29:16;10.30;79.40
9448;DHT22;4762;48.128;11.376;2022-11-20T10:48:37;8.20;80.20
9448;DHT22;4762;48.128;11.376;2022-11-20T10:50:49;8.30;79.60
9448;DHT22;4762;48.128;11.376;2022-11-20T10:55:40;8.00;80.10
9448;DHT22;4762;48.128;11.376;2022-11-20T11:00:26;7.90;80.40
9448;DHT22;4762;48.128;11.376;2022-11-20T11:02:39;7.70;80.40
9448;DHT22;4762;48.128;11.376;2022-11-20T11:04:45;7.70;81.00
9448;DHT22;4762;48.128;11.376;2022-11-20T11:06:46;7.80;80.70
9448;DHT22;4762;48.128;11.376;2022-11-20T11:26:20;7.80;81.30
9448;DHT22;4762;48.128;11.376;2022-11-20T11:28:25;7.40;81.60
9448;DHT22;4762;48.128;11.376;2022-11-20T11:30:49;7.50;81.50
9448;DHT22;4762;48.128;11.376;2022-11-20T11:33:09;7.90;81.10
9448;DHT22;4762;48.128;11.376;2022-11-20T11:35:26;7.80;80.80
9448;DHT22;4762;48.128;11.376;2022-11-20T11:37:39;7.80;80.70
9448;DHT22;4762;48.128;11.376;2022-11-20T11:39:43;7.90;81.10
9448;DHT22;4762;48.128;11.376;2022-11-20T11:41:49;7.90;80.70
9448;DHT22;4762;48.128;11.376;2022-11-20T11:43:56;8.30;79.80
9448;DHT22;4762;48.128;11.376;2022-11-20T11:49:15;8.60;78.50
9448;DHT22;4762;48.128;11.376;2022-11-20T11:51:31;8.20;78.90
9448;DHT22;4762;48.128;11.376;2022-11-20T12:48:00;6.10;90.20
9448;DHT22;4762;48.128;11.376;2022-11-20T12:50:08;6.00;89.50
9448;DHT22;4762;48.128;11.376;2022-11-20T12:52:20;6.20;89.10
9448;DHT22;4762;48.128;11.376;2022-11-20T12:56:59;6.20;89.20
9448;DHT22;4762;48.128;11.376;2022-11-20T13:01:52;5.90;89.80
9448;DHT22;4762;48.128;11.376;2022-11-20T13:06:16;5.60;92.90
9448;DHT22;4762;48.128;11.376;2022-11-20T13:08:57;5.40;93.60
9448;DHT22;4762;48.128;11.376;2022-11-20T13:11:13;5.40;93.70
9448;DHT22;4762;48.128;11.376;2022-11-20T13:18:14;5.40;94.40
9448;DHT22;4762;48.128;11.376;2022-11-20T13:22:43;5.50;94.40
9448;DHT22;4762;48.128;11.376;2022-11-20T13:24:50;5.60;94.20
9448;DHT22;4762;48.128;11.376;2022-11-20T13:27:04;5.70;94.00
9448;DHT22;4762;48.128;11.376;2022-11-20T13:29:12;5.70;93.90
9448;DHT22;4762;48.128;11.376;2022-11-20T13:31:29;5.60;93.70
9448;DHT22;4762;48.128;11.376;2022-11-20T13:33:33;5.90;93.10
9448;DHT22;4762;48.128;11.376;2022-11-20T13:40:38;5.60;92.10
9448;DHT22;4762;48.128;11.376;2022-11-20T13:45:21;5.70;92.40
9448;DHT22;4762;48.128;11.376;2022-11-20T13:47:33;5.80;92.40
9448;DHT22;4762;48.128;11.376;2022-11-20T14:06:53;6.00;90.70
9448;DHT22;4762;48.128;11.376;2022-11-20T14:08:57;6.00;90.90
9448;DHT22;4762;48.128;11.376;2022-11-20T14:11:11;5.90;90.20
9448;DHT22;4762;48.128;11.376;2022-11-20T14:13:15;5.90;90.50
9448;DHT22;4762;48.128;11.376;2022-11-20T14:15:31;6.00;89.70
9448;DHT22;4762;48.128;11.376;2022-11-20T14:17:36;6.00;89.80
9448;DHT22;4762;48.128;11.376;2022-11-20T14:19:39;6.10;89.90
9448;DHT22;4762;48.128;11.376;2022-11-20T14:21:45;5.90;90.10
9448;DHT22;4762;48.128;11.376;2022-11-20T14:23:52;5.90;89.90
9448;DHT22;4762;48.128;11.376;2022-11-20T14:26:12;5.90;89.60
9448;DHT22;4762;48.128;11.376;2022-11-20T14:28:34;6.00;89.20
9448;DHT22;4762;48.128;11.376;2022-11-20T14:30:43;5.80;89.70
9448;DHT22;4762;48.128;11.376;2022-11-20T14:32:46;5.80;89.00
9448;DHT22;4762;48.128;11.376;2022-11-20T14:37:20;5.80;88.60
9448;DHT22;4762;48.128;11.376;2022-11-20T14:39:25;5.70;88.80
9448;DHT22;4762;48.128;11.376;2022-11-20T14:41:26;5.80;89.20
9448;DHT22;4762;48.128;11.376;2022-11-20T14:43:28;5.60;89.00
9448;DHT22;4762;48.128;11.376;2022-11-20T14:45:31;5.70;89.10
9448;DHT22;4762;48.128;11.376;2022-11-20T14:47:33;5.80;88.90
9448;DHT22;4762;48.128;11.376;2022-11-20T15:06:54;5.60;89.00
9448;DHT22;4762;48.128;11.376;2022-11-20T15:08:59;5.60;88.90
9448;DHT22;4762;48.128;11.376;2022-11-20T15:11:01;5.60;88.80
9448;DHT22;4762;48.128;11.376;2022-11-20T15:13:05;5.60;89.20
9448;DHT22;4762;48.128;11.376;2022-11-20T15:15:10;5.50;89.30
9448;DHT22;4762;48.128;11.376;2022-11-20T15:17:10;5.50;89.30
9448;DHT22;4762;48.128;11.376;2022-11-20T15:19:17;5.50;89.20
9448;DHT22;4762;48.128;11.376;2022-11-20T15:26:26;5.40;89.90
9448;DHT22;4762;48.128;11.376;2022-11-20T15:28:34;5.50;89.40
9448;DHT22;4762;48.128;11.376;2022-11-20T15:30:35;5.50;89.50
9448;DHT22;4762;48.128;11.376;2022-11-20T15:32:38;5.30;89.80
9448;DHT22;4762;48.128;11.376;2022-11-20T15:34:40;5.20;89.90
9448;DHT22;4762;48.128;11.376;2022-11-20T15:36:42;5.20;89.60
9448;DHT22;4762;48.128;11.376;2022-11-20T15:38:45;5.10;89.80
9448;DHT22;4762;48.128;11.376;2022-11-20T15:40:47;5.10;89.90
9448;DHT22;4762;48.128;11.376;2022-11-20T15:42:50;5.10;90.10
9448;DHT22;4762;48.128;11.376;2022-11-20T15:45:10;5.10;90.10
9448;DHT22;4762;48.128;11.376;2022-11-20T15:47:15;5.00;90.30
9448;DHT22;4762;48.128;11.376;2022-11-20T15:49:18;4.90;90.20
9448;DHT22;4762;48.128;11.376;2022-11-20T15:51:26;4.90;90.70
9448;DHT22;4762;48.128;11.376;2022-11-20T15:53:27;4.90;90.40
9448;DHT22;4762;48.128;11.376;2022-11-20T15:55:30;5.00;90.80
9448;DHT22;4762;48.128;11.376;2022-11-20T15:57:32;4.90;90.70
9448;DHT22;4762;48.128;11.376;2022-11-20T15:59:34;4.80;90.80
9448;DHT22;4762;48.128;11.376;2022-11-20T16:01:37;4.70;91.10
9448;DHT22;4762;48.128;11.376;2022-11-20T16:03:39;4.50;91.20
9448;DHT22;4762;48.128;11.376;2022-11-20T16:05:42;4.70;91.40
9448;DHT22;4762;48.128;11.376;2022-11-20T16:07:53;4.60;91.10
9448;DHT22;4762;48.128;11.376;2022-11-20T16:09:57;4.50;91.40
9448;DHT22;4762;48.128;11.376;2022-11-20T16:12:00;4.60;91.60
9448;DHT22;4762;48.128;11.376;2022-11-20T16:14:04;4.50;91.40
9448;DHT22;4762;48.128;11.376;2022-11-20T16:16:22;4.50;91.70
9448;DHT22;4762;48.128;11.376;2022-11-20T16:18:25;4.30;91.70
9448;DHT22;4762;48.128;11.376;2022-11-20T16:20:47;4.40;91.90
9448;DHT22;4762;48.128;11.376;2022-11-20T16:23:22;4.30;92.00
9448;DHT22;4762;48.128;11.376;2022-11-20T16:25:32;4.20;92.10
9448;DHT22;4762;48.128;11.376;2022-11-20T16:27:39;4.10;92.10
9448;DHT22;4762;48.128;11.376;2022-11-20T16:29:41;4.20;92.20
9448;DHT22;4762;48.128;11.376;2022-11-20T16:31:45;3.90;92.20
9448;DHT22;4762;48.128;11.376;2022-11-20T16:33:50;4.30;92.40
9448;DHT22;4762;48.128;11.376;2022-11-20T16:35:53;4.20;92.10
9448;DHT22;4762;48.128;11.376;2022-11-20T16:37:56;4.20;92.00
9448;DHT22;4762;48.128;11.376;2022-11-20T16:39:58;4.20;91.90
9448;DHT22;4762;48.128;11.376;2022-11-20T16:42:03;4.00;91.70
9448;DHT22;4762;48.128;11.376;2022-11-20T16:44:08;4.20;91.90
9448;DHT22;4762;48.128;11.376;2022-11-20T16:46:16;4.00;91.70
9448;DHT22;4762;48.128;11.376;2022-11-20T17:05:37;3.70;92.20
9448;DHT22;4762;48.128;11.376;2022-11-20T17:07:39;3.80;91.90
9448;DHT22;4762;48.128;11.376;2022-11-20T17:09:41;3.90;91.90
9448;DHT22;4762;48.128;11.376;2022-11-20T17:29:06;3.60;92.20
9448;DHT22;4762;48.128;11.376;2022-11-20T17:31:22;3.50;92.20
9448;DHT22;4762;48.128;11.376;2022-11-20T17:33:48;3.40;92.00
9448;DHT22;4762;48.128;11.376;2022-11-20T17:35:51;3.30;91.90
9448;DHT22;4762;48.128;11.376;2022-11-20T17:37:56;3.30;92.30
9448;DHT22;4762;48.128;11.376;2022-11-20T17:40:00;3.30;92.10
9448;DHT22;4762;48.128;11.376;2022-11-20T17:42:02;3.20;92.20
9448;DHT22;4762;48.128;11.376;2022-11-20T18:01:29;3.10;93.40
9448;DHT22;4762;48.128;11.376;2022-11-20T18:03:31;2.90;93.30
9448;DHT22;4762;48.128;11.376;2022-11-20T18:05:34;2.90;93.00
9448;DHT22;4762;48.128;11.376;2022-11-20T18:07:38;2.90;93.50
9448;DHT22;4762;48.128;11.376;2022-11-20T18:09:40;3.00;93.80
9448;DHT22;4762;48.128;11.376;2022-11-20T18:11:42;2.90;94.30
9448;DHT22;4762;48.128;11.376;2022-11-20T18:13:48;3.00;94.50
9448;DHT22;4762;48.128;11.376;2022-11-20T18:16:05;3.00;93.90
9448;DHT22;4762;48.128;11.376;2022-11-20T18:18:00;3.00;94.00
9448;DHT22;4762;48.128;11.376;2022-11-20T18:20:06;2.90;94.00
9448;DHT22;4762;48.128;11.376;2022-11-20T18:22:11;2.80;94.60
9448;DHT22;4762;48.128;11.376;2022-11-20T18:24:12;2.60;94.70
9448;DHT22;4762;48.128;11.376;2022-11-20T18:26:15;2.40;94.90
9448;DHT22;4762;48.128;11.376;2022-11-20T18:28:18;2.50;95.30
9448;DHT22;4762;48.128;11.376;2022-11-20T18:30:21;2.60;95.30
9448;DHT22;4762;48.128;11.376;2022-11-20T18:32:25;2.40;95.40
9448;DHT22;4762;48.128;11.376;2022-11-20T18:34:28;2.50;95.80
9448;DHT22;4762;48.128;11.376;2022-11-20T18:36:31;2.40;95.10
9448;DHT22;4762;48.128;11.376;2022-11-20T18:38:35;2.60;95.20
9448;DHT22;4762;48.128;11.376;2022-11-20T18:40:41;2.40;95.30
9448;DHT22;4762;48.128;11.376;2022-11-20T18:42:43;2.30;95.20
9448;DHT22;4762;48.128;11.376;2022-11-20T18:44:51;2.50;94.40
9448;DHT22;4762;48.128;11.376;2022-11-20T18:46:53;2.30;94.90
9448;DHT22;4762;48.128;11.376;2022-11-20T18:48:55;2.10;95.40
9448;DHT22;4762;48.128;11.376;2022-11-20T18:51:05;2.40;94.90
9448;DHT22;4762;48.128;11.376;2022-11-20T18:53:06;2.10;94.70
9448;DHT22;4762;48.128;11.376;2022-11-20T18:55:10;2.10;93.90
9448;DHT22;4762;48.128;11.376;2022-11-20T18:57:14;2.30;94.60
9448;DHT22;4762;48.128;11.376;2022-11-20T18:59:16;1.90;95.20
9448;DHT22;4762;48.128;11.376;2022-11-20T19:01:18;1.90;95.30
9448;DHT22;4762;48.128;11.376;2022-11-20T19:03:21;1.90;94.60
9448;DHT22;4762;48.128;11.376;2022-11-20T19:05:34;2.00;94.10
9448;DHT22;4762;48.128;11.376;2022-11-20T19:07:49;2.00;94.10
9448;DHT22;4762;48.128;11.376;2022-11-20T19:09:58;1.90;94.70
9448;DHT22;4762;48.128;11.376;2022-11-20T19:12:06;1.90;95.60
9448;DHT22;4762;48.128;11.376;2022-11-20T19:14:25;1.80;95.30
9448;DHT22;4762;48.128;11.376;2022-11-20T19:16:33;1.90;94.70
9448;DHT22;4762;48.128;11.376;2022-11-20T19:18:37;1.80;95.00
9448;DHT22;4762;48.128;11.376;2022-11-20T19:20:42;1.90;94.30
9448;DHT22;4762;48.128;11.376;2022-11-20T19:22:48;2.00;95.10
9448;DHT22;4762;48.128;11.376;2022-11-20T19:24:56;1.80;95.80
9448;DHT22;4762;48.128;11.376;2022-11-20T19:27:20;1.90;95.30
9448;DHT22;4762;48.128;11.376;2022-11-20T19:29:30;2.00;94.70
9448;DHT22;4762;48.128;11.376;2022-11-20T19:31:50;1.90;94.70
9448;DHT22;4762;48.128;11.376;2022-11-20T19:36:16;2.10;95.60
9448;DHT22;4762;48.128;11.376;2022-11-20T19:38:20;2.40;96.20
9448;DHT22;4762;48.128;11.376;2022-11-20T19:40:38;2.20;96.20
9448;DHT22;4762;48.128;11.376;2022-11-20T19:42:52;2.40;95.80
9448;DHT22;4762;48.128;11.376;2022-11-20T19:45:01;2.40;95.60
9448;DHT22;4762;48.128;11.376;2022-11-20T19:47:06;2.20;95.60
9448;DHT22;4762;48.128;11.376;2022-11-20T19:49:18;2.60;95.70
9448;DHT22;4762;48.128;11.376;2022-11-20T19:51:22;2.50;95.90
9448;DHT22;4762;48.128;11.376;2022-11-20T19:53:23;2.60;95.80
9448;DHT22;4762;48.128;11.376;2022-11-20T19:55:26;2.40;95.60
9448;DHT22;4762;48.128;11.376;2022-11-20T19:57:28;2.50;95.30
9448;DHT22;4762;48.128;11.376;2022-11-20T19:59:30;2.30;95.60
9448;DHT22;4762;48.128;11.376;2022-11-20T20:01:33;2.60;95.50
9448;DHT22;4762;48.128;11.376;2022-11-20T20:03:36;2.50;95.50
9448;DHT22;4762;48.128;11.376;2022-11-20T20:05:39;2.60;95.30
9448;DHT22;4762;48.128;11.376;2022-11-20T20:07:41;2.60;95.10
9448;DHT22;4762;48.128;11.376;2022-11-20T20:09:45;2.50;94.90
9448;DHT22;4762;48.128;11.376;2022-11-20T20:11:47;2.50;95.00
9448;DHT22;4762;48.128;11.376;2022-11-20T20:13:50;2.50;94.90
9448;DHT22;4762;48.128;11.376;2022-11-20T20:15:54;2.60;95.00
9448;DHT22;4762;48.128;11.376;2022-11-20T20:17:56;2.20;94.80
9448;DHT22;4762;48.128;11.376;2022-11-20T20:19:58;2.40;95.00
9448;DHT22;4762;48.128;11.376;2022-11-20T20:22:01;2.30;95.00
9448;DHT22;4762;48.128;11.376;2022-11-20T20:24:04;2.40;95.20
9448;DHT22;4762;48.128;11.376;2022-11-20T20:26:06;2.40;95.00
9448;DHT22;4762;48.128;11.376;2022-11-20T20:28:08;2.40;94.60
9448;DHT22;4762;48.128;11.376;2022-11-20T20:30:11;2.40;94.50
9448;DHT22;4762;48.128;11.376;2022-11-20T20:32:14;2.40;94.80
9448;DHT22;4762;48.128;11.376;2022-11-20T20:51:45;2.10;94.60
9448;DHT22;4762;48.128;11.376;2022-11-20T20:53:48;2.40;94.60
9448;DHT22;4762;48.128;11.376;2022-11-20T20:55:55;2.40;94.50
9448;DHT22;4762;48.128;11.376;2022-11-20T20:57:57;2.30;93.90
9448;DHT22;4762;48.128;11.376;2022-11-20T20:59:59;2.40;93.40
9448;DHT22;4762;48.128;11.376;2022-11-20T21:02:03;2.50;93.40
9448;DHT22;4762;48.128;11.376;2022-11-20T21:04:05;2.60;93.10
9448;DHT22;4762;48.128;11.376;2022-11-20T21:06:08;2.90;92.40
9448;DHT22;4762;48.128;11.376;2022-11-20T21:08:10;3.00;91.80
9448;DHT22;4762;48.128;11.376;2022-11-20T21:10:18;3.20;91.70
9448;DHT22;4762;48.128;11.376;2022-11-20T21:12:21;3.30;91.10
9448;DHT22;4762;48.128;11.376;2022-11-20T21:14:23;3.40;90.90
9448;DHT22;4762;48.128;11.376;2022-11-20T21:16:25;3.40;90.00
9448;DHT22;4762;48.128;11.376;2022-11-20T21:18:28;3.50;89.80
9448;DHT22;4762;48.128;11.376;2022-11-20T21:20:30;3.70;89.80
9448;DHT22;4762;48.128;11.376;2022-11-20T21:22:39;4.10;89.10
9448;DHT22;4762;48.128;11.376;2022-11-20T21:41:58;4.30;91.30
9448;DHT22;4762;48.128;11.376;2022-11-20T21:44:01;4.20;92.10
9448;DHT22;4762;48.128;11.376;2022-11-20T21:46:07;4.00;92.50
9448;DHT22;4762;48.128;11.376;2022-11-20T21:48:08;4.00;93.40
9448;DHT22;4762;48.128;11.376;2022-11-20T21:50:11;3.80;93.70
9448;DHT22;4762;48.128;11.376;2022-11-20T21:52:14;3.80;94.60
9448;DHT22;4762;48.128;11.376;2022-11-20T21:54:17;3.80;94.50
9448;DHT22;4762;48.128;11.376;2022-11-20T21:56:24;3.80;94.00